createdAt,value
2023-03-14T06:29:51.438Z,2.20
2023-03-14T06:32:17.970Z,2.20
2023-03-14T06:34:45.015Z,2.08
2023-03-14T06:37:11.883Z,2.25
2023-03-14T06:39:38.461Z,2.13
2023-03-14T06:42:05.351Z,2.40
2023-03-14T06:44:32.013Z,1.98
2023-03-14T06:46:58.528Z,2.80
2023-03-14T06:49:25.189Z,2.40
2023-03-14T06:51:51.753Z,2.60
2023-03-14T06:54:18.398Z,2.33
2023-03-14T06:56:45.188Z,2.63
2023-03-14T06:59:11.887Z,2.35
2023-03-14T07:01:38.477Z,2.30
2023-03-14T07:04:05.692Z,2.10
2023-03-14T07:06:32.328Z,2.45
2023-03-14T07:08:58.986Z,2.30
2023-03-14T07:11:25.595Z,2.55
2023-03-14T07:13:53.246Z,2.40
2023-03-14T07:16:26.307Z,2.17
2023-03-14T07:18:52.856Z,2.17
2023-03-14T07:21:19.377Z,2.28
2023-03-14T07:23:45.925Z,2.83
2023-03-14T07:26:12.456Z,2.20
2023-03-14T07:28:38.987Z,2.40
2023-03-14T07:31:08.688Z,2.20
2023-03-14T07:33:35.950Z,2.20
2023-03-14T07:36:03.788Z,2.30
2023-03-14T07:38:30.763Z,2.30
2023-03-14T07:41:04.629Z,2.53
2023-03-14T07:43:31.369Z,2.30
2023-03-14T07:45:59.499Z,2.33
2023-03-14T07:48:26.571Z,2.50
2023-03-14T07:50:54.432Z,2.67
2023-03-14T07:53:22.242Z,3.30
2023-03-14T07:55:48.849Z,2.60
2023-03-14T07:58:15.759Z,2.40
2023-03-14T08:00:42.315Z,2.70
2023-03-14T08:03:09.165Z,2.22
2023-03-14T08:05:39.446Z,2.60
2023-03-14T08:08:06.719Z,2.45
2023-03-14T08:10:33.687Z,2.30
2023-03-14T08:13:01.902Z,2.70
2023-03-14T08:15:30.718Z,2.72
2023-03-14T08:17:57.491Z,2.20
2023-03-14T08:20:27.942Z,2.60
2023-03-14T08:22:57.323Z,2.40
2023-03-14T08:25:24.793Z,2.78
2023-03-14T08:27:51.699Z,2.15
2023-03-14T08:30:20.302Z,2.55
2023-03-14T08:32:46.989Z,2.95
2023-03-14T08:35:14.251Z,2.70
2023-03-14T08:37:40.846Z,2.58
2023-03-14T08:40:11.039Z,2.22
2023-03-14T08:42:39.289Z,2.10
2023-03-14T08:45:07.391Z,2.28
2023-03-14T08:47:33.969Z,2.80
2023-03-14T08:50:02.653Z,2.13
2023-03-14T08:52:29.396Z,2.40
2023-03-14T08:54:57.024Z,2.22
2023-03-14T08:57:26.740Z,2.83
2023-03-14T08:59:53.292Z,2.40
2023-03-14T09:02:19.901Z,3.08
2023-03-14T09:04:46.645Z,2.50
2023-03-14T09:07:14.763Z,2.35
2023-03-14T09:09:41.397Z,2.30
2023-03-14T09:12:08.154Z,2.40
2023-03-14T09:14:34.744Z,2.33
2023-03-14T09:17:07.529Z,2.40
2023-03-14T09:19:37.369Z,2.58
2023-03-14T09:22:04.343Z,2.20
2023-03-14T09:24:34.821Z,2.13
2023-03-14T09:27:04.014Z,1.90
2023-03-14T09:29:30.609Z,2.90
2023-03-14T09:31:59.253Z,2.30
2023-03-14T09:34:26.177Z,2.35
2023-03-14T09:36:52.781Z,2.47
2023-03-14T09:39:19.531Z,2.38
2023-03-14T09:41:49.783Z,2.10
2023-03-14T09:44:25.399Z,2.80
2023-03-14T09:46:54.784Z,2.83
2023-03-14T09:49:26.128Z,3.03
2023-03-14T09:51:55.467Z,2.60
2023-03-14T09:54:39.872Z,2.63
2023-03-14T09:57:12.079Z,2.58
2023-03-14T09:59:39.838Z,2.20
2023-03-14T10:02:29.697Z,2.40
2023-03-14T10:04:56.244Z,2.50
2023-03-14T10:07:31.627Z,2.03
2023-03-14T10:09:59.518Z,2.10
2023-03-14T10:12:34.258Z,2.40
2023-03-14T10:15:11.607Z,2.07
2023-03-14T10:17:51.726Z,2.35
2023-03-14T10:20:33.272Z,3.22
2023-03-14T10:23:21.130Z,2.33
2023-03-14T10:26:01.428Z,3.42
2023-03-14T10:28:30.090Z,2.10
2023-03-14T10:31:00.449Z,2.00
2023-03-14T10:33:33.209Z,2.17
2023-03-14T10:35:59.983Z,2.10
2023-03-14T10:38:32.443Z,1.77
2023-03-14T10:41:00.164Z,1.90
2023-03-14T10:43:34.704Z,2.20
2023-03-14T10:46:13.374Z,2.10
2023-03-14T10:48:40.515Z,2.08
2023-03-14T10:51:18.669Z,2.22
2023-03-14T10:53:56.232Z,2.20
2023-03-14T10:56:25.893Z,2.08
2023-03-14T10:58:57.421Z,1.85
2023-03-14T11:01:49.123Z,2.00
2023-03-14T11:04:42.037Z,2.40
2023-03-14T11:07:41.787Z,1.90
2023-03-14T11:11:08.031Z,1.80
2023-03-14T11:13:36.726Z,2.03
2023-03-14T11:16:09.247Z,2.22
2023-03-14T11:18:53.196Z,2.25
2023-03-14T11:21:24.978Z,2.20
2023-03-14T11:24:26.538Z,2.30
2023-03-14T11:27:17.644Z,2.15
2023-03-14T11:29:55.984Z,2.08
2023-03-14T11:33:09.901Z,2.30
2023-03-14T11:35:42.412Z,2.17
2023-03-14T11:38:31.300Z,2.17
2023-03-14T11:40:59.960Z,2.40
2023-03-14T11:43:33.342Z,2.17
2023-03-14T11:46:11.934Z,2.20
2023-03-14T11:48:58.050Z,2.37
2023-03-14T11:51:30.553Z,2.00
2023-03-14T11:54:06.622Z,2.33
2023-03-14T11:56:50.127Z,2.75
2023-03-14T11:59:28.526Z,3.00
2023-03-14T12:02:18.297Z,2.27
2023-03-14T12:04:53.038Z,2.20
2023-03-14T12:07:35.684Z,2.58
2023-03-14T12:10:04.014Z,2.38
2023-03-14T12:12:32.246Z,2.30
2023-03-14T12:15:03.655Z,2.60
2023-03-14T12:17:40.036Z,2.90
2023-03-14T12:20:18.797Z,2.45
2023-03-14T12:23:04.792Z,2.60
2023-03-14T12:25:34.303Z,2.20
2023-03-14T12:28:01.023Z,2.50
2023-03-14T12:30:38.148Z,2.00
2023-03-14T12:33:10.536Z,2.65
2023-03-14T12:36:01.617Z,2.67
2023-03-14T12:38:37.792Z,2.40
2023-03-14T12:41:29.834Z,2.40
2023-03-14T12:43:56.462Z,2.90
2023-03-14T12:46:26.167Z,2.92
2023-03-14T12:49:01.820Z,2.75
2023-03-14T12:51:42.178Z,2.58
2023-03-14T12:54:34.682Z,2.57
2023-03-14T12:57:28.796Z,2.30
2023-03-14T13:00:00.544Z,2.00
2023-03-14T13:02:39.643Z,2.58
2023-03-14T13:05:13.311Z,1.98
2023-03-14T13:07:48.918Z,2.10
2023-03-14T13:10:25.325Z,2.50
2023-03-14T13:12:57.274Z,2.05
2023-03-14T13:15:32.682Z,2.40
2023-03-14T13:18:30.522Z,2.40
2023-03-14T13:21:04.718Z,2.27
2023-03-14T13:23:37.398Z,2.20
2023-03-14T13:26:07.037Z,2.20
2023-03-14T13:28:36.428Z,2.38
2023-03-14T13:31:04.572Z,2.55
2023-03-14T13:33:31.644Z,2.53
2023-03-14T13:36:02.365Z,2.13
2023-03-14T13:38:33.885Z,2.10
2023-03-14T13:41:04.714Z,2.10
2023-03-14T13:43:35.879Z,2.20
2023-03-14T13:46:08.547Z,2.20
2023-03-14T13:48:47.269Z,2.20
2023-03-14T13:51:17.306Z,2.10
2023-03-14T13:53:49.363Z,2.15
2023-03-14T13:56:22.751Z,2.47
2023-03-14T13:58:50.992Z,2.20
2023-03-14T14:01:36.712Z,2.30
2023-03-14T14:13:53.733Z,2.00
2023-03-14T14:16:25.216Z,2.00
2023-03-14T14:18:53.912Z,1.80
2023-03-14T14:21:24.997Z,2.13
2023-03-14T14:23:52.155Z,1.90
2023-03-14T14:26:20.647Z,1.90
2023-03-14T14:28:48.035Z,2.00
2023-03-14T14:31:23.180Z,2.35
2023-03-14T14:34:01.634Z,1.90
2023-03-14T14:36:40.652Z,2.60
2023-03-14T14:39:17.693Z,1.93
2023-03-14T14:41:45.030Z,2.20
2023-03-14T14:44:13.772Z,1.88
2023-03-14T14:46:40.859Z,2.20
2023-03-14T14:49:13.530Z,1.98
2023-03-14T14:51:49.114Z,2.67
2023-03-14T14:54:18.677Z,2.85
2023-03-14T14:56:53.431Z,2.60
2023-03-14T14:59:23.684Z,2.72
2023-03-14T15:01:50.334Z,2.55
2023-03-14T15:04:16.984Z,3.50
2023-03-14T15:06:48.653Z,3.00
2023-03-14T15:09:15.980Z,2.40
2023-03-14T15:11:42.533Z,2.40
2023-03-14T15:14:09.154Z,2.20
2023-03-14T15:16:36.512Z,2.40
2023-03-14T15:19:23.651Z,2.38
2023-03-14T15:21:52.885Z,2.22
2023-03-14T15:24:19.565Z,2.60
2023-03-14T15:26:46.171Z,2.47
2023-03-14T15:29:13.355Z,2.40
2023-03-14T15:31:40.746Z,2.40
2023-03-14T15:34:07.399Z,2.47
2023-03-14T15:36:35.354Z,2.13
2023-03-14T15:39:03.498Z,2.10
2023-03-14T15:41:30.116Z,2.40
2023-03-14T15:43:56.995Z,2.97
2023-03-14T15:46:23.698Z,2.90
2023-03-14T15:48:51.844Z,2.28
2023-03-14T15:51:19.330Z,2.58
2023-03-14T15:53:46.076Z,2.70
2023-03-14T15:56:15.561Z,2.17
2023-03-14T15:58:42.865Z,2.83
2023-03-14T16:01:09.878Z,3.05
2023-03-14T16:03:39.829Z,3.25
2023-03-14T16:06:06.981Z,2.80
2023-03-14T16:08:33.526Z,2.33
2023-03-14T16:11:00.436Z,2.13
2023-03-14T16:13:27.470Z,2.33
2023-03-14T16:16:03.647Z,2.40
2023-03-14T16:18:32.599Z,2.60
2023-03-14T16:21:01.408Z,3.20
2023-03-14T16:23:29.170Z,2.83
2023-03-14T16:25:56.722Z,4.32
2023-03-14T16:28:24.190Z,3.83
2023-03-14T16:30:50.785Z,3.20
2023-03-14T16:33:18.357Z,2.80
2023-03-14T16:35:58.650Z,3.25
2023-03-14T16:38:25.206Z,2.40
2023-03-14T16:41:16.311Z,2.75
2023-03-14T16:43:43.773Z,2.80
2023-03-14T16:46:17.461Z,2.20
2023-03-14T16:48:45.114Z,2.83
2023-03-14T16:51:12.563Z,2.50
2023-03-14T16:53:39.170Z,2.85
2023-03-14T16:56:06.393Z,2.60
2023-03-14T16:58:33.027Z,2.83
2023-03-14T17:00:59.673Z,2.30
2023-03-14T17:03:26.513Z,2.28
2023-03-14T17:05:53.390Z,2.30
2023-03-14T17:08:21.209Z,2.23
2023-03-14T17:10:47.896Z,2.50
2023-03-14T17:13:14.640Z,2.20
2023-03-14T17:15:46.682Z,2.47
2023-03-14T17:18:13.317Z,2.05
2023-03-14T17:20:39.846Z,2.43
2023-03-14T17:23:06.489Z,2.80
2023-03-14T17:25:33.205Z,2.88
2023-03-14T17:27:59.830Z,2.90
2023-03-14T17:30:26.333Z,2.63
2023-03-14T17:32:52.872Z,2.70
2023-03-14T17:35:19.403Z,2.45
2023-03-14T17:37:45.994Z,2.28
2023-03-14T17:40:12.887Z,2.35
2023-03-14T17:42:39.475Z,2.55
2023-03-14T17:45:06.748Z,2.40
2023-03-14T17:47:33.440Z,2.47
2023-03-14T17:50:00.021Z,2.40
2023-03-14T17:52:26.921Z,2.30
2023-03-14T17:54:53.501Z,2.60
2023-03-14T17:57:20.236Z,2.50
2023-03-14T17:59:46.776Z,2.38
2023-03-14T18:02:13.564Z,2.25
2023-03-14T18:04:40.287Z,2.95
2023-03-14T18:07:07.028Z,3.15
2023-03-14T18:09:33.612Z,2.83
2023-03-14T18:12:07.378Z,2.83
2023-03-14T18:14:35.937Z,2.53
2023-03-14T18:17:02.640Z,2.75
2023-03-14T18:19:29.201Z,2.50
2023-03-14T18:21:56.198Z,2.60
2023-03-14T18:24:22.838Z,2.50
2023-03-14T18:26:49.521Z,2.58
2023-03-14T18:29:16.178Z,2.75
2023-03-14T18:31:43.753Z,2.72
2023-03-14T18:34:11.817Z,2.90
2023-03-14T18:36:38.992Z,2.25
2023-03-14T18:39:06.652Z,2.40
2023-03-14T18:41:35.006Z,2.20
2023-03-14T18:44:02.507Z,2.40
2023-03-14T18:46:29.931Z,2.33
2023-03-14T18:48:57.085Z,2.92
2023-03-14T18:51:26.072Z,2.63
2023-03-14T18:53:56.520Z,2.85
2023-03-14T18:56:29.895Z,2.50
2023-03-14T18:58:56.997Z,2.70
2023-03-14T19:01:23.752Z,3.00
2023-03-14T19:03:50.443Z,3.05
2023-03-14T19:06:17.750Z,3.20
2023-03-14T19:08:44.259Z,2.90
2023-03-14T19:11:13.140Z,2.50
2023-03-14T19:13:40.992Z,2.45
2023-03-14T19:16:12.328Z,3.10
2023-03-14T19:18:39.318Z,2.97
2023-03-14T19:21:08.469Z,2.90
2023-03-14T19:23:37.128Z,3.00
2023-03-14T19:26:04.515Z,2.80
2023-03-14T19:28:31.964Z,2.97
2023-03-14T19:30:59.530Z,3.20
2023-03-14T19:33:26.139Z,3.15
2023-03-14T19:35:53.065Z,3.30
2023-03-14T19:38:19.741Z,2.90
2023-03-14T19:40:46.320Z,2.97
2023-03-14T19:43:13.468Z,3.35
2023-03-14T19:45:42.232Z,3.10
2023-03-14T19:48:11.128Z,2.80
2023-03-14T19:50:38.474Z,3.10
2023-03-14T19:53:05.437Z,3.90
2023-03-14T19:55:32.009Z,3.80
2023-03-14T19:57:58.500Z,3.15
2023-03-14T20:00:25.344Z,4.00
2023-03-14T20:02:53.591Z,4.63
2023-03-14T20:05:22.421Z,3.83
2023-03-14T20:07:49.541Z,3.80
2023-03-14T20:10:18.785Z,3.28
2023-03-14T20:12:46.026Z,3.13
2023-03-14T20:15:14.492Z,2.78
2023-03-14T20:17:41.279Z,3.05
2023-03-14T20:20:09.390Z,3.20
2023-03-14T20:22:37.041Z,2.90
2023-03-14T20:25:08.378Z,2.87
2023-03-14T20:27:35.746Z,2.55
2023-03-14T20:30:02.571Z,3.55
2023-03-14T20:32:29.710Z,4.15
2023-03-14T20:34:57.304Z,3.47
2023-03-14T20:37:23.995Z,3.60
2023-03-14T20:39:50.681Z,3.70
2023-03-14T20:42:17.537Z,3.03
2023-03-14T20:44:44.877Z,3.42
2023-03-14T20:47:12.566Z,3.00
2023-03-14T20:49:39.147Z,3.10
2023-03-14T20:52:06.001Z,3.20
2023-03-14T20:54:33.134Z,3.08
2023-03-14T20:56:59.639Z,3.15
2023-03-14T20:59:26.294Z,3.60
2023-03-14T21:01:53.016Z,3.10
2023-03-14T21:04:19.627Z,2.83
2023-03-14T21:06:46.220Z,3.30
2023-03-14T21:09:12.872Z,3.65
2023-03-14T21:11:39.425Z,3.53
2023-03-14T21:14:06.090Z,3.30
2023-03-14T21:16:32.951Z,3.33
2023-03-14T21:18:59.526Z,3.40
2023-03-14T21:21:26.107Z,3.10
2023-03-14T21:23:52.638Z,3.13
2023-03-14T21:26:19.180Z,3.27
2023-03-14T21:28:45.689Z,3.20
2023-03-14T21:31:12.434Z,3.22
2023-03-14T21:33:39.836Z,3.50
2023-03-14T21:36:06.925Z,3.03
2023-03-14T21:38:33.662Z,3.63
2023-03-14T21:41:00.405Z,3.30
2023-03-14T21:43:27.657Z,3.22
2023-03-14T21:45:54.613Z,3.40
2023-03-14T21:48:22.123Z,3.28
2023-03-14T21:50:49.070Z,2.90
2023-03-14T21:53:15.666Z,3.35
2023-03-14T21:55:46.773Z,3.45
2023-03-14T21:58:14.691Z,4.03
2023-03-14T22:00:42.726Z,3.63
2023-03-14T22:03:13.305Z,4.13
2023-03-14T22:05:44.979Z,3.40
2023-03-14T22:08:12.421Z,3.38
2023-03-14T22:10:45.697Z,3.22
2023-03-14T22:13:12.885Z,3.35
2023-03-14T22:15:39.825Z,3.43
2023-03-14T22:18:06.367Z,3.55
2023-03-14T22:20:33.263Z,3.58
2023-03-14T22:22:59.795Z,3.40
2023-03-14T22:25:26.347Z,3.78
2023-03-14T22:27:53.151Z,3.80
2023-03-14T22:30:19.698Z,3.85
2023-03-14T22:32:46.350Z,3.95
2023-03-14T22:35:13.031Z,4.10
2023-03-14T22:37:41.436Z,3.50
2023-03-14T22:40:09.143Z,3.50
2023-03-14T22:42:35.928Z,4.05
2023-03-14T22:45:02.538Z,3.65
2023-03-14T22:47:29.110Z,3.95
2023-03-14T22:49:55.655Z,4.40
2023-03-14T22:52:22.212Z,3.80
2023-03-14T22:54:48.793Z,3.78
2023-03-14T22:57:15.358Z,3.67
2023-03-14T22:59:41.918Z,3.90
2023-03-14T23:02:08.761Z,3.90
2023-03-14T23:04:35.289Z,4.00
2023-03-14T23:07:01.896Z,3.45
2023-03-14T23:09:28.598Z,3.47
2023-03-14T23:11:55.314Z,3.83
2023-03-14T23:14:21.903Z,3.58
2023-03-14T23:16:49.617Z,3.20
2023-03-14T23:19:16.415Z,3.22
2023-03-14T23:21:42.951Z,3.65
2023-03-14T23:24:10.131Z,4.10
2023-03-14T23:26:38.151Z,4.28
2023-03-14T23:29:05.352Z,4.57
2023-03-14T23:31:32.862Z,4.25
2023-03-14T23:33:59.470Z,4.35
2023-03-14T23:36:26.109Z,4.50
2023-03-14T23:38:52.780Z,4.20
2023-03-14T23:41:19.285Z,4.17
2023-03-14T23:43:46.642Z,4.00
2023-03-14T23:46:14.716Z,4.28
2023-03-14T23:48:41.451Z,4.13
2023-03-14T23:51:10.636Z,3.67
2023-03-14T23:53:37.471Z,3.87
2023-03-14T23:56:04.298Z,3.97
2023-03-14T23:58:31.496Z,3.78
